sensor_id;sensor_type;location;lat;lon;timestamp;pressure;altitude;pressure_sealevel;temperature;humidity
16664;BME280;8445;51.270;9.434;2022-09-01T00:01:48;100023.44;;;14.86;48.84
16664;BME280;8445;51.270;9.434;2022-09-01T00:04:21;100024.31;;;14.87;49.41
16664;BME280;8445;51.270;9.434;2022-09-01T00:06:48;100024.09;;;14.78;49.24
16664;BME280;8445;51.270;9.434;2022-09-01T00:09:18;100026.50;;;14.81;50.05
16664;BME280;8445;51.270;9.434;2022-09-01T00:11:50;100027.09;;;14.85;48.99
16664;BME280;8445;51.270;9.434;2022-09-01T00:14:20;100023.97;;;14.80;48.91
16664;BME280;8445;51.270;9.434;2022-09-01T00:16:46;100017.19;;;14.76;48.83
16664;BME280;8445;51.270;9.434;2022-09-01T00:19:12;100032.34;;;14.75;49.18
16664;BME280;8445;51.270;9.434;2022-09-01T00:21:42;100024.22;;;14.77;50.41
16664;BME280;8445;51.270;9.434;2022-09-01T00:24:11;100029.63;;;14.87;50.15
16664;BME280;8445;51.270;9.434;2022-09-01T00:26:37;100026.84;;;14.88;49.94
16664;BME280;8445;51.270;9.434;2022-09-01T00:29:04;100022.63;;;14.86;49.69
16664;BME280;8445;51.270;9.434;2022-09-01T00:31:31;100023.72;;;14.83;49.94
16664;BME280;8445;51.270;9.434;2022-09-01T00:33:58;100020.94;;;14.85;50.32
16664;BME280;8445;51.270;9.434;2022-09-01T00:36:24;100024.06;;;14.90;50.05
16664;BME280;8445;51.270;9.434;2022-09-01T00:38:51;100023.19;;;14.89;50.53
16664;BME280;8445;51.270;9.434;2022-09-01T00:41:22;100021.25;;;14.91;49.75
16664;BME280;8445;51.270;9.434;2022-09-01T00:43:57;100021.13;;;14.93;52.75
16664;BME280;8445;51.270;9.434;2022-09-01T00:46:33;100021.50;;;14.88;51.25
16664;BME280;8445;51.270;9.434;2022-09-01T00:49:03;100017.81;;;14.79;50.75
16664;BME280;8445;51.270;9.434;2022-09-01T00:51:34;100023.97;;;14.80;50.49
16664;BME280;8445;51.270;9.434;2022-09-01T00:54:03;100030.66;;;14.74;50.40
16664;BME280;8445;51.270;9.434;2022-09-01T00:56:32;100030.09;;;14.71;50.46
16664;BME280;8445;51.270;9.434;2022-09-01T00:58:59;100037.22;;;14.70;51.36
16664;BME280;8445;51.270;9.434;2022-09-01T01:01:26;100033.22;;;14.64;50.51
16664;BME280;8445;51.270;9.434;2022-09-01T01:03:52;100034.44;;;14.60;50.92
16664;BME280;8445;51.270;9.434;2022-09-01T01:06:19;100031.56;;;14.52;50.75
16664;BME280;8445;51.270;9.434;2022-09-01T01:08:51;100030.13;;;14.48;50.94
16664;BME280;8445;51.270;9.434;2022-09-01T01:11:26;100031.81;;;14.49;51.36
16664;BME280;8445;51.270;9.434;2022-09-01T01:14:04;100025.00;;;14.56;52.51
16664;BME280;8445;51.270;9.434;2022-09-01T01:16:36;100026.25;;;14.52;50.95
16664;BME280;8445;51.270;9.434;2022-09-01T01:19:03;100026.97;;;14.54;51.16
16664;BME280;8445;51.270;9.434;2022-09-01T01:21:38;100023.78;;;14.60;53.28
16664;BME280;8445;51.270;9.434;2022-09-01T01:24:32;100022.09;;;14.59;51.55
16664;BME280;8445;51.270;9.434;2022-09-01T01:27:00;100026.25;;;14.52;51.19
16664;BME280;8445;51.270;9.434;2022-09-01T01:29:31;100026.50;;;14.49;51.87
16664;BME280;8445;51.270;9.434;2022-09-01T01:31:58;100022.59;;;14.53;52.05
16664;BME280;8445;51.270;9.434;2022-09-01T01:34:25;100023.09;;;14.47;51.73
16664;BME280;8445;51.270;9.434;2022-09-01T01:36:52;100018.19;;;14.42;52.78
16664;BME280;8445;51.270;9.434;2022-09-01T01:39:23;100026.75;;;14.46;55.58
16664;BME280;8445;51.270;9.434;2022-09-01T01:41:54;100022.59;;;14.53;53.81
16664;BME280;8445;51.270;9.434;2022-09-01T01:44:25;100022.09;;;14.59;53.59
16664;BME280;8445;51.270;9.434;2022-09-01T01:46:55;100013.91;;;14.51;52.42
16664;BME280;8445;51.270;9.434;2022-09-01T01:49:26;100021.63;;;14.54;55.19
16664;BME280;8445;51.270;9.434;2022-09-01T01:51:54;100023.19;;;14.57;52.17
16664;BME280;8445;51.270;9.434;2022-09-01T01:54:27;100017.03;;;14.56;51.95
16664;BME280;8445;51.270;9.434;2022-09-01T01:57:01;100019.22;;;14.51;54.43
16664;BME280;8445;51.270;9.434;2022-09-01T01:59:30;100019.59;;;14.46;52.21
16664;BME280;8445;51.270;9.434;2022-09-01T02:01:58;100017.91;;;14.45;52.22
16664;BME280;8445;51.270;9.434;2022-09-01T02:04:26;100016.13;;;14.34;51.39
16664;BME280;8445;51.270;9.434;2022-09-01T02:07:02;100016.16;;;14.23;50.87
16664;BME280;8445;51.270;9.434;2022-09-01T02:09:28;100018.34;;;14.18;51.18
16664;BME280;8445;51.270;9.434;2022-09-01T02:11:53;100012.81;;;14.10;51.45
16664;BME280;8445;51.270;9.434;2022-09-01T02:14:23;100020.78;;;14.10;51.10
16664;BME280;8445;51.270;9.434;2022-09-01T02:16:49;100009.91;;;14.01;50.90
16664;BME280;8445;51.270;9.434;2022-09-01T02:19:15;100011.38;;;13.94;51.64
16664;BME280;8445;51.270;9.434;2022-09-01T02:21:45;100013.56;;;13.89;51.37
16664;BME280;8445;51.270;9.434;2022-09-01T02:24:21;100005.81;;;13.86;51.52
16664;BME280;8445;51.270;9.434;2022-09-01T02:26:49;100008.34;;;13.87;52.52
16664;BME280;8445;51.270;9.434;2022-09-01T02:29:21;100014.53;;;13.99;53.92
16664;BME280;8445;51.270;9.434;2022-09-01T02:31:51;100003.97;;;14.09;52.44
16664;BME280;8445;51.270;9.434;2022-09-01T02:34:19;100012.69;;;14.11;52.25
16664;BME280;8445;51.270;9.434;2022-09-01T02:36:50;100008.56;;;14.18;52.14
16664;BME280;8445;51.270;9.434;2022-09-01T02:39:29;100010.00;;;14.22;54.09
16664;BME280;8445;51.270;9.434;2022-09-01T02:41:58;100008.06;;;14.13;52.48
16664;BME280;8445;51.270;9.434;2022-09-01T02:44:28;100007.75;;;14.06;52.23
16664;BME280;8445;51.270;9.434;2022-09-01T02:46:58;100008.72;;;14.05;52.77
16664;BME280;8445;51.270;9.434;2022-09-01T02:49:25;100000.13;;;14.02;52.37
16664;BME280;8445;51.270;9.434;2022-09-01T02:51:58;100000.50;;;13.97;53.35
16664;BME280;8445;51.270;9.434;2022-09-01T02:54:28;100005.06;;;14.06;52.13
16664;BME280;8445;51.270;9.434;2022-09-01T02:56:55;100001.22;;;13.99;52.84
16664;BME280;8445;51.270;9.434;2022-09-01T02:59:26;100013.78;;;14.08;52.51
16664;BME280;8445;51.270;9.434;2022-09-01T03:01:56;100000.75;;;13.94;52.25
16664;BME280;8445;51.270;9.434;2022-09-01T03:04:23;100002.69;;;13.92;52.81
16664;BME280;8445;51.270;9.434;2022-09-01T03:06:49;100003.50;;;13.92;52.74
16664;BME280;8445;51.270;9.434;2022-09-01T03:09:20;100009.44;;;13.96;53.02
16664;BME280;8445;51.270;9.434;2022-09-01T03:11:50;100010.28;;;13.97;52.31
16664;BME280;8445;51.270;9.434;2022-09-01T03:14:17;100004.13;;;13.85;51.98
16664;BME280;8445;51.270;9.434;2022-09-01T03:16:44;100008.25;;;13.89;53.56
16664;BME280;8445;51.270;9.434;2022-09-01T03:19:10;100008.34;;;13.87;53.20
16664;BME280;8445;51.270;9.434;2022-09-01T03:21:40;100004.84;;;13.98;54.61
16664;BME280;8445;51.270;9.434;2022-09-01T03:24:11;100001.00;;;13.91;55.33
16664;BME280;8445;51.270;9.434;2022-09-01T03:26:40;100002.66;;;14.03;53.48
16664;BME280;8445;51.270;9.434;2022-09-01T03:29:07;100004.59;;;14.01;53.38
16664;BME280;8445;51.270;9.434;2022-09-01T03:31:34;100011.38;;;13.94;53.70
16664;BME280;8445;51.270;9.434;2022-09-01T03:34:02;100003.88;;;13.99;53.44
16664;BME280;8445;51.270;9.434;2022-09-01T03:36:34;100007.25;;;14.01;53.09
16664;BME280;8445;51.270;9.434;2022-09-01T03:39:00;100013.06;;;13.95;53.26
16664;BME280;8445;51.270;9.434;2022-09-01T03:41:29;100007.50;;;13.87;53.29
16664;BME280;8445;51.270;9.434;2022-09-01T03:43:57;100013.22;;;13.82;53.86
16664;BME280;8445;51.270;9.434;2022-09-01T03:46:28;100011.63;;;13.79;55.17
16664;BME280;8445;51.270;9.434;2022-09-01T03:48:58;100000.66;;;13.73;55.88
16664;BME280;8445;51.270;9.434;2022-09-01T03:51:28;100000.28;;;13.77;54.39
16664;BME280;8445;51.270;9.434;2022-09-01T03:53:56;100002.69;;;13.81;55.20
16664;BME280;8445;51.270;9.434;2022-09-01T03:56:26;100010.41;;;13.84;56.42
16664;BME280;8445;51.270;9.434;2022-09-01T03:58:57;100003.41;;;13.83;56.94
16664;BME280;8445;51.270;9.434;2022-09-01T04:01:29;100009.22;;;13.76;55.85
16664;BME280;8445;51.270;9.434;2022-09-01T04:04:03;100005.72;;;13.64;55.17
16664;BME280;8445;51.270;9.434;2022-09-01T04:06:33;100002.94;;;13.66;57.09
16664;BME280;8445;51.270;9.434;2022-09-01T04:09:01;100006.31;;;13.68;56.54
16664;BME280;8445;51.270;9.434;2022-09-01T04:11:31;100009.94;;;13.67;55.17
16664;BME280;8445;51.270;9.434;2022-09-01T04:13:59;100002.81;;;13.68;55.71
16664;BME280;8445;51.270;9.434;2022-09-01T04:16:29;100001.47;;;13.73;57.20
16664;BME280;8445;51.270;9.434;2022-09-01T04:19:17;100009.44;;;13.73;57.31
16664;BME280;8445;51.270;9.434;2022-09-01T04:21:58;99997.84;;;13.86;57.54
16664;BME280;8445;51.270;9.434;2022-09-01T04:24:29;100002.56;;;13.82;55.62
16664;BME280;8445;51.270;9.434;2022-09-01T04:26:59;100009.22;;;13.76;55.86
16664;BME280;8445;51.270;9.434;2022-09-01T04:29:28;100007.53;;;13.75;55.24
16664;BME280;8445;51.270;9.434;2022-09-01T04:31:59;100005.34;;;13.81;57.44
16664;BME280;8445;51.270;9.434;2022-09-01T04:34:36;100001.97;;;13.78;54.96
16664;BME280;8445;51.270;9.434;2022-09-01T04:37:14;100000.75;;;13.71;56.76
16664;BME280;8445;51.270;9.434;2022-09-01T04:39:52;100003.06;;;13.76;56.67
16664;BME280;8445;51.270;9.434;2022-09-01T04:42:19;100002.94;;;13.66;54.58
16664;BME280;8445;51.270;9.434;2022-09-01T04:44:50;100012.72;;;13.66;55.22
16664;BME280;8445;51.270;9.434;2022-09-01T04:47:18;100013.81;;;13.63;54.36
16664;BME280;8445;51.270;9.434;2022-09-01T04:49:47;100020.09;;;13.62;55.35
16664;BME280;8445;51.270;9.434;2022-09-01T04:52:14;100014.75;;;13.62;55.53
16664;BME280;8445;51.270;9.434;2022-09-01T04:54:40;100013.56;;;13.66;55.36
16664;BME280;8445;51.270;9.434;2022-09-01T04:57:06;100016.22;;;13.66;56.13
16664;BME280;8445;51.270;9.434;2022-09-01T04:59:35;100023.22;;;13.78;56.03
16664;BME280;8445;51.270;9.434;2022-09-01T05:02:02;100019.59;;;13.79;55.95
16664;BME280;8445;51.270;9.434;2022-09-01T05:04:32;100015.75;;;13.84;58.12
16664;BME280;8445;51.270;9.434;2022-09-01T05:07:03;100016.47;;;13.86;57.35
16664;BME280;8445;51.270;9.434;2022-09-01T05:09:37;100010.53;;;13.93;55.98
16664;BME280;8445;51.270;9.434;2022-09-01T05:12:36;100007.50;;;13.98;55.36
16664;BME280;8445;51.270;9.434;2022-09-01T05:15:02;100008.72;;;14.05;54.97
16664;BME280;8445;51.270;9.434;2022-09-01T05:17:31;100004.94;;;14.08;55.59
16664;BME280;8445;51.270;9.434;2022-09-01T05:19:58;100006.41;;;14.01;55.70
16664;BME280;8445;51.270;9.434;2022-09-01T05:22:24;100014.69;;;14.19;55.26
16664;BME280;8445;51.270;9.434;2022-09-01T05:25:01;100001.88;;;14.24;55.02
16664;BME280;8445;51.270;9.434;2022-09-01T05:27:43;99999.19;;;14.35;54.45
16664;BME280;8445;51.270;9.434;2022-09-01T05:30:15;100006.66;;;14.42;55.01
16664;BME280;8445;51.270;9.434;2022-09-01T05:32:43;100010.28;;;14.52;55.30
16664;BME280;8445;51.270;9.434;2022-09-01T05:35:12;100003.00;;;14.54;55.02
16664;BME280;8445;51.270;9.434;2022-09-01T05:37:38;100002.25;;;14.63;55.24
16664;BME280;8445;51.270;9.434;2022-09-01T05:40:09;100006.91;;;14.82;54.99
16664;BME280;8445;51.270;9.434;2022-09-01T05:42:44;100004.25;;;14.82;55.80
16664;BME280;8445;51.270;9.434;2022-09-01T05:45:11;100001.38;;;14.95;54.27
16664;BME280;8445;51.270;9.434;2022-09-01T05:47:39;100006.59;;;14.97;54.71
16664;BME280;8445;51.270;9.434;2022-09-01T05:50:06;100010.41;;;15.04;54.46
16664;BME280;8445;51.270;9.434;2022-09-01T05:52:38;100010.03;;;15.09;55.08
16664;BME280;8445;51.270;9.434;2022-09-01T05:55:05;100014.63;;;15.07;55.78
16664;BME280;8445;51.270;9.434;2022-09-01T05:57:36;100004.09;;;15.26;55.29
16664;BME280;8445;51.270;9.434;2022-09-01T06:00:08;100008.88;;;15.33;55.66
16664;BME280;8445;51.270;9.434;2022-09-01T06:02:41;100013.50;;;15.52;54.64
16664;BME280;8445;51.270;9.434;2022-09-01T06:05:11;100012.38;;;15.54;54.75
16664;BME280;8445;51.270;9.434;2022-09-01T06:07:37;100018.84;;;15.62;56.55
16664;BME280;8445;51.270;9.434;2022-09-01T06:10:06;100018.59;;;15.65;55.26
16664;BME280;8445;51.270;9.434;2022-09-01T06:12:33;100016.38;;;15.70;55.58
16664;BME280;8445;51.270;9.434;2022-09-01T06:14:59;100020.13;;;15.89;55.28
16664;BME280;8445;51.270;9.434;2022-09-01T06:17:27;100011.41;;;15.87;56.00
16664;BME280;8445;51.270;9.434;2022-09-01T06:19:57;100022.22;;;15.95;55.28
16664;BME280;8445;51.270;9.434;2022-09-01T06:22:26;100021.56;;;16.03;55.15
16664;BME280;8445;51.270;9.434;2022-09-01T06:24:53;100021.31;;;16.15;54.66
16664;BME280;8445;51.270;9.434;2022-09-01T06:27:20;100018.22;;;16.20;54.57
16664;BME280;8445;51.270;9.434;2022-09-01T06:29:47;100021.31;;;16.25;54.79
16664;BME280;8445;51.270;9.434;2022-09-01T06:32:20;100027.25;;;16.29;54.88
16664;BME280;8445;51.270;9.434;2022-09-01T06:34:46;100025.59;;;16.48;54.52
16664;BME280;8445;51.270;9.434;2022-09-01T06:37:17;100023.91;;;16.47;54.77
16664;BME280;8445;51.270;9.434;2022-09-01T06:39:49;100025.59;;;16.48;54.80
16664;BME280;8445;51.270;9.434;2022-09-01T06:42:16;100034.84;;;16.53;54.89
16664;BME280;8445;51.270;9.434;2022-09-01T06:44:48;100021.91;;;16.68;54.47
16664;BME280;8445;51.270;9.434;2022-09-01T06:47:14;100024.72;;;16.77;54.24
16664;BME280;8445;51.270;9.434;2022-09-01T06:49:41;100026.56;;;16.86;54.06
16664;BME280;8445;51.270;9.434;2022-09-01T06:52:15;100038.25;;;16.75;54.41
16664;BME280;8445;51.270;9.434;2022-09-01T06:54:41;100034.47;;;16.97;53.90
16664;BME280;8445;51.270;9.434;2022-09-01T06:57:08;100039.53;;;17.00;53.86
16664;BME280;8445;51.270;9.434;2022-09-01T06:59:35;100042.19;;;17.10;53.78
16664;BME280;8445;51.270;9.434;2022-09-01T07:02:02;100037.94;;;17.08;54.19
16664;BME280;8445;51.270;9.434;2022-09-01T07:04:54;100037.38;;;17.14;53.70
16664;BME280;8445;51.270;9.434;2022-09-01T07:07:23;100038.06;;;17.16;53.62
16664;BME280;8445;51.270;9.434;2022-09-01T07:10:03;100044.13;;;17.18;53.73
16664;BME280;8445;51.270;9.434;2022-09-01T07:12:38;100048.06;;;17.24;53.76
16664;BME280;8445;51.270;9.434;2022-09-01T07:15:07;100042.16;;;17.20;53.77
16664;BME280;8445;51.270;9.434;2022-09-01T07:17:33;100032.84;;;17.24;53.63
16664;BME280;8445;51.270;9.434;2022-09-01T07:19:59;100037.34;;;17.33;53.52
16664;BME280;8445;51.270;9.434;2022-09-01T07:22:25;100031.94;;;17.53;53.16
16664;BME280;8445;51.270;9.434;2022-09-01T07:24:51;100039.28;;;17.51;53.39
16664;BME280;8445;51.270;9.434;2022-09-01T07:27:54;100034.63;;;17.53;53.33
16664;BME280;8445;51.270;9.434;2022-09-01T07:30:25;100049.09;;;17.60;53.40
16664;BME280;8445;51.270;9.434;2022-09-01T07:32:52;100044.53;;;17.71;53.11
16664;BME280;8445;51.270;9.434;2022-09-01T07:35:20;100044.53;;;17.71;53.11
16664;BME280;8445;51.270;9.434;2022-09-01T07:37:48;100048.19;;;17.70;53.38
16664;BME280;8445;51.270;9.434;2022-09-01T07:40:19;100035.16;;;17.95;53.23
16664;BME280;8445;51.270;9.434;2022-09-01T07:43:21;100048.97;;;18.00;53.36
16664;BME280;8445;51.270;9.434;2022-09-01T07:46:07;100041.44;;;18.13;53.05
16664;BME280;8445;51.270;9.434;2022-09-01T07:48:34;100030.91;;;18.48;52.76
16664;BME280;8445;51.270;9.434;2022-09-01T07:51:00;100030.31;;;18.54;52.74
16664;BME280;8445;51.270;9.434;2022-09-01T07:53:32;100033.13;;;18.52;52.82
16664;BME280;8445;51.270;9.434;2022-09-01T07:56:07;100031.91;;;18.65;52.36
16664;BME280;8445;51.270;9.434;2022-09-01T07:58:40;100036.09;;;18.67;51.88
16664;BME280;8445;51.270;9.434;2022-09-01T08:01:14;100039.47;;;18.70;52.01
16664;BME280;8445;51.270;9.434;2022-09-01T08:03:50;100036.34;;;18.74;52.31
16664;BME280;8445;51.270;9.434;2022-09-01T08:06:21;100048.66;;;18.85;51.94
16664;BME280;8445;51.270;9.434;2022-09-01T08:08:52;100032.81;;;18.92;52.40
16664;BME280;8445;51.270;9.434;2022-09-01T08:11:27;100033.16;;;19.15;50.93
16664;BME280;8445;51.270;9.434;2022-09-01T08:13:56;100033.72;;;19.19;51.92
16664;BME280;8445;51.270;9.434;2022-09-01T08:16:30;100036.16;;;19.30;51.48
16664;BME280;8445;51.270;9.434;2022-09-01T08:19:00;100045.94;;;19.39;51.74
16664;BME280;8445;51.270;9.434;2022-09-01T08:21:32;100037.19;;;19.37;51.75
16664;BME280;8445;51.270;9.434;2022-09-01T08:24:11;100041.19;;;19.33;51.74
16664;BME280;8445;51.270;9.434;2022-09-01T08:26:37;100040.56;;;19.39;51.49
16664;BME280;8445;51.270;9.434;2022-09-01T08:29:05;100045.28;;;19.46;51.66
16664;BME280;8445;51.270;9.434;2022-09-01T08:31:38;100036.53;;;19.44;51.74
16664;BME280;8445;51.270;9.434;2022-09-01T08:34:04;100031.97;;;19.62;51.65
16664;BME280;8445;51.270;9.434;2022-09-01T08:36:32;100038.09;;;19.81;51.07
16664;BME280;8445;51.270;9.434;2022-09-01T08:38:58;100035.59;;;19.88;51.20
16664;BME280;8445;51.270;9.434;2022-09-01T08:42:01;100040.91;;;20.06;48.37
16664;BME280;8445;51.270;9.434;2022-09-01T08:45:23;100039.31;;;20.29;47.90
16664;BME280;8445;51.270;9.434;2022-09-01T08:48:01;100033.22;;;20.19;49.47
16664;BME280;8445;51.270;9.434;2022-09-01T08:50:33;100029.22;;;20.32;50.90
16664;BME280;8445;51.270;9.434;2022-09-01T08:53:49;100038.47;;;20.37;50.17
16664;BME280;8445;51.270;9.434;2022-09-01T08:56:18;100028.25;;;20.41;50.69
16664;BME280;8445;51.270;9.434;2022-09-01T08:59:20;100032.97;;;20.47;49.52
16664;BME280;8445;51.270;9.434;2022-09-01T09:14:29;100032.50;;;21.18;48.74
16664;BME280;8445;51.270;9.434;2022-09-01T09:16:55;100025.09;;;21.28;49.36
16664;BME280;8445;51.270;9.434;2022-09-01T09:19:38;100025.56;;;21.40;46.53
16664;BME280;8445;51.270;9.434;2022-09-01T09:22:28;100031.13;;;21.47;47.96
16664;BME280;8445;51.270;9.434;2022-09-01T09:25:15;100019.59;;;21.61;46.37
16664;BME280;8445;51.270;9.434;2022-09-01T09:27:45;100021.16;;;21.64;44.32
16664;BME280;8445;51.270;9.434;2022-09-01T09:30:29;100017.19;;;21.91;46.23
16664;BME280;8445;51.270;9.434;2022-09-01T09:33:04;100016.44;;;22.06;48.02
16664;BME280;8445;51.270;9.434;2022-09-01T09:35:47;100008.09;;;22.24;47.41
16664;BME280;8445;51.270;9.434;2022-09-01T09:38:24;100010.66;;;22.41;47.43
16664;BME280;8445;51.270;9.434;2022-09-01T09:41:14;100010.72;;;22.64;46.90
16664;BME280;8445;51.270;9.434;2022-09-01T09:46:41;99994.59;;;23.62;48.47
16664;BME280;8445;51.270;9.434;2022-09-01T09:51:34;100004.25;;;24.38;46.92
16664;BME280;8445;51.270;9.434;2022-09-01T09:54:26;99989.97;;;24.66;39.46
16664;BME280;8445;51.270;9.434;2022-09-01T09:57:09;99988.03;;;24.82;39.47
16664;BME280;8445;51.270;9.434;2022-09-01T09:59:47;99990.59;;;24.90;44.21
16664;BME280;8445;51.270;9.434;2022-09-01T10:04:53;99986.72;;;24.78;45.91
16664;BME280;8445;51.270;9.434;2022-09-01T10:07:35;99981.00;;;24.88;43.19
16664;BME280;8445;51.270;9.434;2022-09-01T10:10:23;99983.56;;;24.96;44.15
16664;BME280;8445;51.270;9.434;2022-09-01T10:12:52;99975.75;;;25.08;46.54
16664;BME280;8445;51.270;9.434;2022-09-01T10:15:24;99968.16;;;24.96;45.65
16664;BME280;8445;51.270;9.434;2022-09-01T10:17:53;99977.78;;;24.99;45.91
16664;BME280;8445;51.270;9.434;2022-09-01T10:20:25;99974.22;;;24.98;45.31
16664;BME280;8445;51.270;9.434;2022-09-01T10:22:52;99977.31;;;24.95;46.38
16664;BME280;8445;51.270;9.434;2022-09-01T10:25:25;99975.78;;;24.86;44.91
16664;BME280;8445;51.270;9.434;2022-09-01T10:28:01;99973.59;;;24.75;44.77
16664;BME280;8445;51.270;9.434;2022-09-01T10:30:31;99973.47;;;24.83;46.18
16664;BME280;8445;51.270;9.434;2022-09-01T10:33:00;99969.03;;;25.04;45.97
16664;BME280;8445;51.270;9.434;2022-09-01T10:35:32;99966.44;;;25.17;44.94
16664;BME280;8445;51.270;9.434;2022-09-01T10:38:03;99969.00;;;25.25;41.47
16664;BME280;8445;51.270;9.434;2022-09-01T10:40:44;99962.16;;;25.36;37.92
16664;BME280;8445;51.270;9.434;2022-09-01T10:43:41;99965.22;;;25.55;35.30
16664;BME280;8445;51.270;9.434;2022-09-01T10:48:45;99966.91;;;25.56;43.13
16664;BME280;8445;51.270;9.434;2022-09-01T10:53:44;99961.56;;;25.76;36.84
16664;BME280;8445;51.270;9.434;2022-09-01T10:56:45;99968.25;;;25.80;39.62
16664;BME280;8445;51.270;9.434;2022-09-01T11:10:20;99958.91;;;25.89;37.28
16664;BME280;8445;51.270;9.434;2022-09-01T11:15:43;99954.88;;;25.72;43.56
16664;BME280;8445;51.270;9.434;2022-09-01T11:18:29;99950.88;;;25.61;41.30
16664;BME280;8445;51.270;9.434;2022-09-01T11:21:24;99951.63;;;25.48;34.75
16664;BME280;8445;51.270;9.434;2022-09-01T11:23:50;99958.06;;;25.47;43.21
16664;BME280;8445;51.270;9.434;2022-09-01T11:28:58;99961.53;;;25.34;41.40
16664;BME280;8445;51.270;9.434;2022-09-01T11:31:42;99956.72;;;25.29;36.82
16664;BME280;8445;51.270;9.434;2022-09-01T11:34:20;99961.25;;;25.22;39.20
16664;BME280;8445;51.270;9.434;2022-09-01T11:36:58;99955.66;;;24.95;42.03
16664;BME280;8445;51.270;9.434;2022-09-01T11:40:03;99957.22;;;25.11;35.07
16664;BME280;8445;51.270;9.434;2022-09-01T11:42:41;99957.13;;;25.26;42.19
16664;BME280;8445;51.270;9.434;2022-09-01T11:45:20;99956.78;;;25.43;40.25
16664;BME280;8445;51.270;9.434;2022-09-01T11:48:16;99951.47;;;25.56;33.43
16664;BME280;8445;51.270;9.434;2022-09-01T11:50:42;99947.53;;;25.59;42.09
16664;BME280;8445;51.270;9.434;2022-09-01T11:53:21;99956.38;;;25.81;37.28
16664;BME280;8445;51.270;9.434;2022-09-01T11:55:52;99953.03;;;25.93;41.89
16664;BME280;8445;51.270;9.434;2022-09-01T12:00:56;99959.22;;;26.28;40.85
16664;BME280;8445;51.270;9.434;2022-09-01T12:03:28;99953.63;;;26.43;41.33
16664;BME280;8445;51.270;9.434;2022-09-01T12:06:03;99953.19;;;26.53;35.62
16664;BME280;8445;51.270;9.434;2022-09-01T12:08:59;99941.53;;;26.93;37.58
16664;BME280;8445;51.270;9.434;2022-09-01T12:11:34;99945.50;;;26.97;34.36
16664;BME280;8445;51.270;9.434;2022-09-01T12:14:07;99943.38;;;27.06;40.30
16664;BME280;8445;51.270;9.434;2022-09-01T12:16:37;99931.25;;;27.15;41.32
16664;BME280;8445;51.270;9.434;2022-09-01T12:19:05;99931.66;;;27.12;40.33
16664;BME280;8445;51.270;9.434;2022-09-01T12:22:12;99936.88;;;27.20;35.81
16664;BME280;8445;51.270;9.434;2022-09-01T12:24:46;99934.59;;;27.11;37.14
16664;BME280;8445;51.270;9.434;2022-09-01T12:27:13;99933.38;;;26.93;39.52
16664;BME280;8445;51.270;9.434;2022-09-01T12:29:40;99929.22;;;26.84;40.51
16664;BME280;8445;51.270;9.434;2022-09-01T12:32:07;99932.94;;;26.69;40.38
16664;BME280;8445;51.270;9.434;2022-09-01T12:34:43;99935.44;;;26.51;39.88
16664;BME280;8445;51.270;9.434;2022-09-01T12:39:45;99929.09;;;25.89;39.54
16664;BME280;8445;51.270;9.434;2022-09-01T12:44:59;99923.84;;;25.81;38.15
16664;BME280;8445;51.270;9.434;2022-09-01T12:52:51;99915.19;;;25.51;32.35
16664;BME280;8445;51.270;9.434;2022-09-01T12:55:35;99917.53;;;25.60;39.24
16664;BME280;8445;51.270;9.434;2022-09-01T12:58:07;99912.66;;;25.49;37.17
16664;BME280;8445;51.270;9.434;2022-09-01T13:00:53;99917.34;;;25.69;38.77
16664;BME280;8445;51.270;9.434;2022-09-01T13:03:20;99907.59;;;25.81;39.80
16664;BME280;8445;51.270;9.434;2022-09-01T13:05:52;99910.75;;;25.98;39.45
16664;BME280;8445;51.270;9.434;2022-09-01T13:08:22;99897.47;;;26.17;38.99
16664;BME280;8445;51.270;9.434;2022-09-01T13:11:08;99903.13;;;26.29;32.22
16664;BME280;8445;51.270;9.434;2022-09-01T13:13:35;99894.34;;;26.27;38.50
16664;BME280;8445;51.270;9.434;2022-09-01T13:16:02;99897.06;;;26.20;38.09
16664;BME280;8445;51.270;9.434;2022-09-01T13:18:33;99899.31;;;26.10;37.87
16664;BME280;8445;51.270;9.434;2022-09-01T13:21:00;99899.69;;;25.86;38.03
16664;BME280;8445;51.270;9.434;2022-09-01T13:23:26;99893.13;;;25.60;38.01
16664;BME280;8445;51.270;9.434;2022-09-01T13:25:52;99897.28;;;25.50;38.73
16664;BME280;8445;51.270;9.434;2022-09-01T13:28:19;99889.78;;;25.52;38.06
16664;BME280;8445;51.270;9.434;2022-09-01T13:30:55;99889.59;;;25.60;35.54
16664;BME280;8445;51.270;9.434;2022-09-01T13:33:24;99886.47;;;25.63;38.12
16664;BME280;8445;51.270;9.434;2022-09-01T13:35:50;99884.44;;;25.79;38.59
16664;BME280;8445;51.270;9.434;2022-09-01T13:38:17;99878.41;;;25.90;38.06
16664;BME280;8445;51.270;9.434;2022-09-01T13:40:46;99870.72;;;26.07;36.20
16664;BME280;8445;51.270;9.434;2022-09-01T13:43:18;99874.94;;;26.16;37.64
16664;BME280;8445;51.270;9.434;2022-09-01T13:45:45;99870.97;;;26.26;38.39
16664;BME280;8445;51.270;9.434;2022-09-01T13:48:13;99877.03;;;26.41;38.46
16664;BME280;8445;51.270;9.434;2022-09-01T13:50:40;99869.09;;;26.53;38.35
16664;BME280;8445;51.270;9.434;2022-09-01T13:53:07;99869.09;;;26.53;37.44
16664;BME280;8445;51.270;9.434;2022-09-01T13:55:38;99867.41;;;26.59;37.61
16664;BME280;8445;51.270;9.434;2022-09-01T13:58:05;99862.19;;;26.64;38.11
16664;BME280;8445;51.270;9.434;2022-09-01T14:00:36;99856.75;;;26.64;37.59
16664;BME280;8445;51.270;9.434;2022-09-01T14:03:09;99855.34;;;26.48;37.46
16664;BME280;8445;51.270;9.434;2022-09-01T14:05:42;99856.38;;;26.40;36.41
16664;BME280;8445;51.270;9.434;2022-09-01T14:08:10;99857.84;;;26.23;37.28
16664;BME280;8445;51.270;9.434;2022-09-01T14:10:43;99859.09;;;26.13;37.27
16664;BME280;8445;51.270;9.434;2022-09-01T14:13:10;99869.50;;;26.10;37.52
16664;BME280;8445;51.270;9.434;2022-09-01T14:15:37;99868.47;;;26.17;37.35
16664;BME280;8445;51.270;9.434;2022-09-01T14:18:04;99860.97;;;26.33;37.69
16664;BME280;8445;51.270;9.434;2022-09-01T14:20:35;99855.13;;;26.49;32.63
16664;BME280;8445;51.270;9.434;2022-09-01T14:23:07;99855.31;;;26.55;31.83
16664;BME280;8445;51.270;9.434;2022-09-01T14:25:36;99854.25;;;26.69;37.72